createdAt,value
2018-07-22T00:00:36.504Z,100765.91
2018-07-22T00:03:05.173Z,100766.98
2018-07-22T00:05:34.144Z,100770.78
2018-07-22T00:08:02.846Z,100771.86
2018-07-22T00:10:31.758Z,100768.31
2018-07-22T00:13:01.016Z,100771.83
2018-07-22T00:15:29.992Z,100769.05
2018-07-22T00:17:58.755Z,100772.58
2018-07-22T00:20:28.201Z,100773.02
2018-07-22T00:22:56.881Z,100768.94
2018-07-22T00:25:25.525Z,100771.38
2018-07-22T00:27:54.488Z,100768.66
2018-07-22T00:30:23.163Z,100774.88
2018-07-22T00:32:51.920Z,100768.87
2018-07-22T00:35:20.726Z,100780.28
2018-07-22T00:37:49.400Z,100777.24
2018-07-22T00:40:19.111Z,100775.27
2018-07-22T00:42:47.838Z,100777.92
2018-07-22T00:45:16.625Z,100780.63
2018-07-22T00:47:45.315Z,100778.45
2018-07-22T00:50:13.995Z,100777.66
2018-07-22T00:52:42.673Z,100771.44
2018-07-22T00:55:11.674Z,100774.20
2018-07-22T00:57:47.093Z,100773.09
2018-07-22T01:00:15.954Z,100772.02
2018-07-22T01:02:44.646Z,100770.66
2018-07-22T01:05:13.684Z,100773.66
2018-07-22T01:07:42.325Z,100776.63
2018-07-22T01:10:11.068Z,100774.12
2018-07-22T01:12:39.757Z,100772.77
2018-07-22T01:15:08.540Z,100764.56
2018-07-22T01:17:37.553Z,100775.36
2018-07-22T01:20:07.114Z,100777.51
2018-07-22T01:22:36.105Z,100777.26
2018-07-22T01:25:04.827Z,100775.65
2018-07-22T01:27:33.587Z,100788.14
2018-07-22T01:30:02.399Z,100781.30
2018-07-22T01:32:31.162Z,100782.66
2018-07-22T01:35:00.668Z,100779.52
2018-07-22T01:37:29.629Z,100778.84
2018-07-22T01:39:58.322Z,100779.58
2018-07-22T01:42:27.753Z,100781.12
2018-07-22T01:44:56.738Z,100780.67
2018-07-22T01:47:25.417Z,100781.91
2018-07-22T01:49:54.139Z,100787.84
2018-07-22T01:52:22.873Z,100784.23
2018-07-22T01:54:51.556Z,100782.87
2018-07-22T01:57:20.164Z,100779.09
2018-07-22T01:59:48.909Z,100774.55
2018-07-22T02:02:17.568Z,100776.78
2018-07-22T02:04:46.202Z,100778.48
2018-07-22T02:07:15.318Z,100780.52
2018-07-22T02:09:44.177Z,100789.86
2018-07-22T02:12:12.824Z,100788.67
2018-07-22T02:14:41.957Z,100785.95
2018-07-22T02:17:11.156Z,100788.67
2018-07-22T02:19:39.839Z,100786.87
2018-07-22T02:22:08.546Z,100792.78
2018-07-22T02:24:37.216Z,100792.52
2018-07-22T02:27:07.514Z,100793.88
2018-07-22T02:29:36.167Z,100790.36
2018-07-22T02:32:04.878Z,100783.39
2018-07-22T02:34:33.804Z,100785.63
2018-07-22T02:37:02.810Z,100787.87
2018-07-22T02:39:31.798Z,100791.94
2018-07-22T02:42:00.530Z,100792.45
2018-07-22T02:44:29.226Z,100797.20
2018-07-22T02:46:58.015Z,100801.56
2018-07-22T02:49:26.716Z,100795.00
2018-07-22T02:51:55.357Z,100794.61
2018-07-22T02:54:24.287Z,100798.08
2018-07-22T02:56:53.310Z,100799.89
2018-07-22T02:59:22.306Z,100794.67
2018-07-22T03:01:50.925Z,100793.93
2018-07-22T03:04:19.635Z,100795.28
2018-07-22T03:06:48.409Z,100803.45
2018-07-22T03:09:17.119Z,100804.25
2018-07-22T03:11:46.164Z,100802.50
2018-07-22T03:14:14.792Z,100795.42
2018-07-22T03:16:43.512Z,100802.89
2018-07-22T03:19:12.264Z,100802.73
2018-07-22T03:21:40.983Z,100807.04
2018-07-22T03:24:09.848Z,100813.75
2018-07-22T03:26:38.592Z,100809.41
2018-07-22T03:29:08.068Z,100804.91
2018-07-22T03:31:36.726Z,100802.03
2018-07-22T03:34:05.515Z,100809.17
2018-07-22T03:36:34.272Z,100808.06
2018-07-22T03:39:03.026Z,100809.53
2018-07-22T03:41:31.948Z,100811.28
2018-07-22T03:44:01.350Z,100807.13
2018-07-22T03:46:30.037Z,100807.52
2018-07-22T03:48:58.992Z,100807.86
2018-07-22T03:51:28.343Z,100809.75
2018-07-22T03:53:57.005Z,100811.59
2018-07-22T03:56:25.665Z,100810.74
2018-07-22T03:58:54.355Z,100814.48
2018-07-22T04:01:23.017Z,100813.53
2018-07-22T04:03:51.722Z,100815.84
2018-07-22T04:06:20.438Z,100810.77
2018-07-22T04:08:49.146Z,100809.22
2018-07-22T04:11:18.453Z,100812.01
2018-07-22T04:13:47.161Z,100808.52
2018-07-22T04:16:15.814Z,100810.17
2018-07-22T04:18:52.387Z,100809.05
2018-07-22T04:21:22.375Z,100810.88
2018-07-22T04:23:51.462Z,100810.88
2018-07-22T04:26:21.138Z,100809.47
2018-07-22T04:28:51.357Z,100808.34
2018-07-22T04:31:20.328Z,100810.48
2018-07-22T04:33:49.470Z,100808.06
2018-07-22T04:36:18.414Z,100808.34
2018-07-22T04:38:47.084Z,100802.75
2018-07-22T04:41:15.813Z,100803.93
2018-07-22T04:43:44.784Z,100807.57
2018-07-22T04:46:13.743Z,100808.45
2018-07-22T04:48:42.776Z,100814.48
2018-07-22T04:51:11.472Z,100816.73
2018-07-22T04:53:40.223Z,100811.40
2018-07-22T04:56:09.535Z,100805.49
2018-07-22T04:58:38.462Z,100807.19
2018-07-22T05:01:07.168Z,100805.11
2018-07-22T05:03:36.133Z,100811.70
2018-07-22T05:06:04.776Z,100811.45
2018-07-22T05:08:33.711Z,100806.03
2018-07-22T05:11:02.803Z,100807.19
2018-07-22T05:13:31.981Z,100806.70
2018-07-22T05:16:00.936Z,100811.91
2018-07-22T05:18:29.861Z,100801.86
2018-07-22T05:20:58.531Z,100808.95
2018-07-22T05:23:27.595Z,100813.89
2018-07-22T05:25:56.364Z,100810.94
2018-07-22T05:28:25.379Z,100810.16
2018-07-22T05:30:54.658Z,100806.66
2018-07-22T05:33:23.545Z,100807.78
2018-07-22T05:35:52.612Z,100807.86
2018-07-22T05:38:21.631Z,100809.27
2018-07-22T05:40:50.694Z,100813.88
2018-07-22T05:43:19.735Z,100816.89
2018-07-22T05:45:48.488Z,100825.62
2018-07-22T05:48:17.170Z,100824.64
2018-07-22T05:50:45.812Z,100824.11
2018-07-22T05:53:14.437Z,100827.94
2018-07-22T05:55:43.059Z,100831.81
2018-07-22T05:58:12.030Z,100830.21
2018-07-22T06:00:41.429Z,100834.86
2018-07-22T06:03:10.294Z,100836.22
2018-07-22T06:05:39.181Z,100834.37
2018-07-22T06:08:07.850Z,100842.53
2018-07-22T06:10:36.844Z,100843.02
2018-07-22T06:13:05.610Z,100845.75
2018-07-22T06:15:34.498Z,100847.18
2018-07-22T06:18:03.497Z,100849.41
2018-07-22T06:20:32.509Z,100849.98
2018-07-22T06:23:01.200Z,100848.08
2018-07-22T06:25:30.170Z,100848.62
2018-07-22T06:27:59.450Z,100852.98
2018-07-22T06:30:28.459Z,100855.99
2018-07-22T06:32:57.459Z,100850.84
2018-07-22T06:35:26.112Z,100851.98
2018-07-22T06:37:54.789Z,100853.36
2018-07-22T06:40:23.427Z,100857.22
2018-07-22T06:42:52.422Z,100864.06
2018-07-22T06:45:22.023Z,100861.10
2018-07-22T06:47:50.743Z,100855.19
2018-07-22T06:50:19.619Z,100869.08
2018-07-22T06:52:48.266Z,100862.81
2018-07-22T06:55:16.918Z,100857.45
2018-07-22T06:57:47.558Z,100854.00
2018-07-22T07:00:16.261Z,100853.30
2018-07-22T07:02:44.990Z,100854.78
2018-07-22T07:05:13.749Z,100849.98
2018-07-22T07:07:42.394Z,100851.16
2018-07-22T07:10:11.663Z,100850.97
2018-07-22T07:12:40.960Z,100850.66
2018-07-22T07:15:09.787Z,100847.70
2018-07-22T07:17:38.841Z,100854.02
2018-07-22T07:20:07.674Z,100856.46
2018-07-22T07:22:36.435Z,100855.70
2018-07-22T07:25:06.310Z,100856.61
2018-07-22T07:27:35.302Z,100856.64
2018-07-22T07:30:05.707Z,100864.56
2018-07-22T07:32:34.746Z,100864.89
2018-07-22T07:35:03.402Z,100867.11
2018-07-22T07:37:32.401Z,100871.53
2018-07-22T07:40:01.440Z,100870.23
2018-07-22T07:42:30.136Z,100867.50
2018-07-22T07:44:59.478Z,100861.24
2018-07-22T07:47:29.099Z,100862.33
2018-07-22T07:49:57.790Z,100858.51
2018-07-22T07:52:28.133Z,100859.04
2018-07-22T07:54:57.241Z,100863.14
2018-07-22T07:57:27.216Z,100863.69
2018-07-22T07:59:56.011Z,100857.95
2018-07-22T08:02:26.150Z,100854.14
2018-07-22T08:04:55.479Z,100857.41
2018-07-22T08:07:24.274Z,100859.87
2018-07-22T08:09:53.359Z,100860.95
2018-07-22T08:12:22.566Z,100862.59
2018-07-22T08:14:51.858Z,100865.32
2018-07-22T08:17:20.945Z,100863.42
2018-07-22T08:19:50.056Z,100863.93
2018-07-22T08:22:18.967Z,100865.78
2018-07-22T08:24:47.636Z,100876.36
2018-07-22T08:27:16.447Z,100866.95
2018-07-22T08:29:45.509Z,100867.35
2018-07-22T08:32:14.187Z,100865.55
2018-07-22T08:34:42.925Z,100862.53
2018-07-22T08:37:12.921Z,100863.99
2018-07-22T08:39:43.831Z,100862.86
2018-07-22T08:42:13.978Z,100859.19
2018-07-22T08:44:46.557Z,100857.73
2018-07-22T08:47:16.583Z,100853.61
2018-07-22T08:49:45.744Z,100858.42
2018-07-22T08:52:14.493Z,100858.75
2018-07-22T08:54:44.505Z,100856.29
2018-07-22T08:57:15.762Z,100857.14
2018-07-22T08:59:45.045Z,100859.66
2018-07-22T09:02:15.599Z,100860.26
2018-07-22T09:04:44.690Z,100861.41
2018-07-22T09:07:13.472Z,100854.48
2018-07-22T09:09:51.550Z,100859.69
2018-07-22T09:12:20.631Z,100867.92
2018-07-22T09:14:50.572Z,100865.27
2018-07-22T09:17:19.509Z,100861.20
2018-07-22T09:19:48.583Z,100862.33
2018-07-22T09:22:20.065Z,100855.57
2018-07-22T09:24:49.042Z,100858.35
2018-07-22T09:27:18.828Z,100856.12
2018-07-22T09:29:48.742Z,100862.91
2018-07-22T09:32:22.367Z,100864.37
2018-07-22T09:34:52.118Z,100861.79
2018-07-22T09:37:20.874Z,100870.91
2018-07-22T09:39:51.743Z,100865.22
2018-07-22T09:42:23.346Z,100863.70
2018-07-22T09:44:55.250Z,100866.95
2018-07-22T09:47:31.314Z,100866.22
2018-07-22T09:50:01.236Z,100866.61
2018-07-22T09:52:31.723Z,100863.72
2018-07-22T09:55:07.344Z,100865.31
2018-07-22T09:57:42.597Z,100867.96
2018-07-22T10:00:14.438Z,100869.13
2018-07-22T10:02:44.824Z,100863.81
2018-07-22T10:05:16.057Z,100865.05
2018-07-22T10:07:46.039Z,100863.45
2018-07-22T10:10:14.994Z,100862.17
2018-07-22T10:12:44.767Z,100862.14
2018-07-22T10:15:14.059Z,100858.78
2018-07-22T10:17:43.726Z,100858.31
2018-07-22T10:20:13.668Z,100850.72
2018-07-22T10:22:42.447Z,100853.61
2018-07-22T10:25:11.269Z,100854.81
2018-07-22T10:27:41.101Z,100859.20
2018-07-22T10:30:10.059Z,100856.10
2018-07-22T10:32:38.753Z,100858.00
2018-07-22T10:35:07.737Z,100859.90
2018-07-22T10:37:36.857Z,100855.92
2018-07-22T10:40:05.604Z,100858.40
2018-07-22T10:42:34.545Z,100858.50
2018-07-22T10:45:03.159Z,100849.90
2018-07-22T10:47:31.806Z,100852.17
2018-07-22T10:50:00.490Z,100852.03
2018-07-22T10:52:29.467Z,100854.22
2018-07-22T10:54:58.088Z,100860.27
2018-07-22T10:57:27.048Z,100856.20
2018-07-22T10:59:56.194Z,100857.05
2018-07-22T11:02:25.186Z,100855.13
2018-07-22T11:04:54.419Z,100853.70
2018-07-22T11:07:23.836Z,100859.16
2018-07-22T11:09:53.603Z,100858.44
2018-07-22T11:12:23.588Z,100859.81
2018-07-22T11:14:52.709Z,100857.97
2018-07-22T11:17:21.308Z,100860.88
2018-07-22T11:19:49.950Z,100859.95
2018-07-22T11:22:18.608Z,100858.52
2018-07-22T11:24:47.521Z,100856.19
2018-07-22T11:27:17.473Z,100855.08
2018-07-22T11:29:46.365Z,100858.88
2018-07-22T11:32:15.014Z,100860.48
2018-07-22T11:34:43.884Z,100864.13
2018-07-22T11:37:12.529Z,100866.03
2018-07-22T11:39:41.173Z,100864.55
2018-07-22T11:42:10.509Z,100865.90
2018-07-22T11:44:39.176Z,100862.91
2018-07-22T11:47:08.164Z,100860.14
2018-07-22T11:49:37.239Z,100865.00
2018-07-22T11:52:06.013Z,100856.68
2018-07-22T11:54:34.653Z,100864.73
2018-07-22T11:57:03.801Z,100865.63
2018-07-22T11:59:34.077Z,100861.68
2018-07-22T12:02:02.812Z,100860.25
2018-07-22T12:04:32.993Z,100863.89
2018-07-22T12:07:02.273Z,100863.55
2018-07-22T12:09:31.298Z,100865.95
2018-07-22T12:12:00.629Z,100865.80
2018-07-22T12:14:29.381Z,100867.44
2018-07-22T12:17:01.329Z,100870.09
2018-07-22T12:19:30.467Z,100864.27
2018-07-22T12:21:59.529Z,100863.42
2018-07-22T12:24:28.700Z,100862.16
2018-07-22T12:26:57.394Z,100865.83
2018-07-22T12:29:26.399Z,100864.03
2018-07-22T12:31:55.195Z,100862.59
2018-07-22T12:34:24.058Z,100862.55
2018-07-22T12:36:52.687Z,100860.09
2018-07-22T12:39:21.314Z,100862.67
2018-07-22T12:41:49.937Z,100864.83
2018-07-22T12:44:18.964Z,100854.79
2018-07-22T12:46:47.620Z,100849.59
2018-07-22T12:49:16.329Z,100850.55
2018-07-22T12:51:45.118Z,100848.57
2018-07-22T12:54:13.786Z,100848.66
2018-07-22T12:56:42.707Z,100843.69
2018-07-22T12:59:11.392Z,100846.28
2018-07-22T13:01:40.112Z,100839.36
2018-07-22T13:04:10.157Z,100835.74
2018-07-22T13:06:38.801Z,100835.48
2018-07-22T13:09:09.641Z,100827.64
2018-07-22T13:11:38.808Z,100835.16
2018-07-22T13:14:07.907Z,100828.38
2018-07-22T13:16:36.644Z,100820.14
2018-07-22T13:19:05.318Z,100823.03
2018-07-22T13:21:34.255Z,100823.73
2018-07-22T13:24:03.870Z,100824.66
2018-07-22T13:26:32.513Z,100826.36
2018-07-22T13:29:01.250Z,100816.63
2018-07-22T13:31:29.936Z,100814.23
2018-07-22T13:33:58.622Z,100807.67
2018-07-22T13:36:27.697Z,100816.14
2018-07-22T13:38:56.500Z,100815.75
2018-07-22T13:41:25.502Z,100814.52
2018-07-22T13:43:54.297Z,100806.88
2018-07-22T13:46:23.109Z,100808.69
2018-07-22T13:48:51.771Z,100811.13
2018-07-22T13:51:20.529Z,100806.31
2018-07-22T13:53:49.474Z,100808.52
2018-07-22T13:56:18.136Z,100805.52
2018-07-22T13:58:48.071Z,100809.09
2018-07-22T14:01:17.042Z,100800.63
2018-07-22T14:03:45.730Z,100806.58
2018-07-22T14:06:14.378Z,100803.34
2018-07-22T14:08:43.393Z,100795.94
2018-07-22T14:11:12.034Z,100789.63
2018-07-22T14:13:41.279Z,100791.16
2018-07-22T14:16:09.916Z,100795.52
2018-07-22T14:18:38.571Z,100788.41
2018-07-22T14:21:07.229Z,100791.86
2018-07-22T14:23:36.148Z,100791.38
2018-07-22T14:26:05.718Z,100780.70
2018-07-22T14:28:34.543Z,100788.34
2018-07-22T14:31:03.586Z,100788.30
2018-07-22T14:33:32.214Z,100791.41
2018-07-22T14:36:00.864Z,100795.63
2018-07-22T14:38:29.592Z,100803.68
2018-07-22T14:40:58.656Z,100804.16
2018-07-22T14:43:27.490Z,100809.89
2018-07-22T14:45:56.197Z,100806.08
2018-07-22T14:48:25.197Z,100809.47
2018-07-22T14:50:54.224Z,100811.12
2018-07-22T14:53:23.162Z,100808.78
2018-07-22T14:55:52.205Z,100806.85
2018-07-22T14:58:20.858Z,100807.39
2018-07-22T15:00:49.524Z,100802.33
2018-07-22T15:03:18.185Z,100808.66
2018-07-22T15:05:46.958Z,100805.83
2018-07-22T15:08:15.919Z,100806.51
2018-07-22T15:10:44.567Z,100804.73
2018-07-22T15:13:13.499Z,100814.38
2018-07-22T15:15:42.471Z,100814.39
2018-07-22T15:18:11.262Z,100811.38
2018-07-22T15:20:40.001Z,100816.09
2018-07-22T15:23:08.599Z,100813.66
2018-07-22T15:25:37.281Z,100810.81
2018-07-22T15:28:06.213Z,100811.12
2018-07-22T15:30:34.861Z,100805.40
2018-07-22T15:33:03.739Z,100803.77
2018-07-22T15:35:32.417Z,100792.80
2018-07-22T15:38:01.123Z,100803.97
2018-07-22T15:40:29.836Z,100808.58
2018-07-22T15:42:59.568Z,100811.31
2018-07-22T15:45:28.620Z,100803.16
2018-07-22T15:47:57.337Z,100802.67
2018-07-22T15:50:26.065Z,100809.05
2018-07-22T15:52:54.716Z,100808.30
2018-07-22T15:55:25.425Z,100806.71
2018-07-22T15:57:54.303Z,100808.30
2018-07-22T16:00:23.095Z,100810.20
2018-07-22T16:02:51.978Z,100807.03
2018-07-22T16:05:20.831Z,100814.16
2018-07-22T16:07:49.795Z,100804.02
2018-07-22T16:10:18.997Z,100804.52
2018-07-22T16:12:47.755Z,100805.33
2018-07-22T16:15:16.568Z,100804.25
2018-07-22T16:17:46.119Z,100806.98
2018-07-22T16:20:15.421Z,100806.93
2018-07-22T16:22:44.447Z,100801.98
2018-07-22T16:25:13.224Z,100802.20
2018-07-22T16:27:42.159Z,100805.42
2018-07-22T16:30:11.304Z,100802.94
2018-07-22T16:32:40.032Z,100788.57
2018-07-22T16:35:09.001Z,100793.19
2018-07-22T16:37:37.785Z,100787.67
2018-07-22T16:40:06.809Z,100784.30
2018-07-22T16:42:35.600Z,100777.91
2018-07-22T16:45:04.350Z,100775.19
2018-07-22T16:47:33.173Z,100776.34
2018-07-22T16:50:02.002Z,100773.23
2018-07-22T16:52:31.194Z,100770.20
2018-07-22T16:55:01.111Z,100769.72
2018-07-22T16:57:29.907Z,100769.72
2018-07-22T16:59:58.925Z,100762.92
2018-07-22T17:02:27.905Z,100763.16
2018-07-22T17:04:56.951Z,100767.60
2018-07-22T17:07:26.977Z,100769.94
2018-07-22T17:09:55.836Z,100767.77
2018-07-22T17:12:24.838Z,100767.27
2018-07-22T17:14:54.350Z,100771.16
2018-07-22T17:17:23.150Z,100768.36
2018-07-22T17:19:52.385Z,100774.37
2018-07-22T17:22:21.199Z,100772.67
2018-07-22T17:24:49.932Z,100769.33
2018-07-22T17:27:18.783Z,100774.80
2018-07-22T17:29:47.956Z,100774.54
2018-07-22T17:32:16.595Z,100777.60
2018-07-22T17:34:45.316Z,100774.06
2018-07-22T17:37:14.072Z,100770.81
2018-07-22T17:39:43.518Z,100763.16
2018-07-22T17:42:12.331Z,100771.10
2018-07-22T17:44:41.326Z,100767.59
2018-07-22T17:47:10.025Z,100770.06
2018-07-22T17:49:38.918Z,100771.36
2018-07-22T17:52:08.589Z,100773.36
2018-07-22T17:54:37.293Z,100776.15
2018-07-22T17:57:06.861Z,100785.14
2018-07-22T17:59:35.790Z,100781.34
2018-07-22T18:02:04.612Z,100787.66
2018-07-22T18:04:33.762Z,100790.18
2018-07-22T18:07:02.548Z,100797.02
2018-07-22T18:09:33.344Z,100801.67
2018-07-22T18:12:02.523Z,100800.88
2018-07-22T18:14:31.197Z,100810.79
2018-07-22T18:17:00.290Z,100807.00
2018-07-22T18:19:29.278Z,100813.30
2018-07-22T18:21:58.942Z,100813.58
2018-07-22T18:24:27.629Z,100814.40
2018-07-22T18:26:56.566Z,100809.52
2018-07-22T18:29:25.262Z,100824.06
2018-07-22T18:31:54.899Z,100821.33
2018-07-22T18:34:24.057Z,100819.17
2018-07-22T18:36:52.881Z,100820.00
2018-07-22T18:39:21.857Z,100823.31
2018-07-22T18:41:51.417Z,100827.19
2018-07-22T18:44:20.750Z,100832.93
2018-07-22T18:46:49.643Z,100832.69
2018-07-22T18:49:18.399Z,100838.16
2018-07-22T18:51:47.438Z,100840.06
2018-07-22T18:54:16.130Z,100846.39
2018-07-22T18:56:45.157Z,100850.79
2018-07-22T18:59:13.941Z,100847.77
2018-07-22T19:01:42.662Z,100855.19
2018-07-22T19:04:11.319Z,100858.48
2018-07-22T19:06:40.484Z,100867.23
2018-07-22T19:09:12.421Z,100867.80
2018-07-22T19:11:41.357Z,100870.27
2018-07-22T19:14:10.143Z,100875.72
2018-07-22T19:16:39.254Z,100881.48
2018-07-22T19:19:08.060Z,100889.94
2018-07-22T19:21:37.157Z,100892.95
2018-07-22T19:24:06.246Z,100892.09
2018-07-22T19:26:34.981Z,100896.76
2018-07-22T19:29:03.728Z,100898.38
2018-07-22T19:31:32.450Z,100896.47
2018-07-22T19:34:01.141Z,100903.30
2018-07-22T19:36:30.186Z,100907.94
2018-07-22T19:38:59.541Z,100908.50
2018-07-22T19:41:28.375Z,100905.47
2018-07-22T19:43:57.077Z,100915.30
2018-07-22T19:46:25.859Z,100910.92
2018-07-22T19:48:54.737Z,100913.66
2018-07-22T19:51:23.542Z,100918.28
2018-07-22T19:53:52.490Z,100916.39
2018-07-22T19:56:21.362Z,100917.73
2018-07-22T19:58:50.070Z,100919.09
2018-07-22T20:01:18.856Z,100920.98
2018-07-22T20:03:48.339Z,100925.88
2018-07-22T20:06:17.429Z,100930.77
2018-07-22T20:08:46.234Z,100927.76
2018-07-22T20:11:15.030Z,100932.11
2018-07-22T20:13:43.679Z,100936.75
2018-07-22T20:16:12.422Z,100934.84
2018-07-22T20:18:41.504Z,100939.44
2018-07-22T20:21:10.806Z,100939.19
2018-07-22T20:23:39.807Z,100944.08
2018-07-22T20:26:08.490Z,100944.34
2018-07-22T20:28:37.142Z,100939.70
2018-07-22T20:31:06.184Z,100937.23
2018-07-22T20:33:35.606Z,100936.16
2018-07-22T20:36:04.374Z,100947.61
2018-07-22T20:38:33.151Z,100944.31
2018-07-22T20:41:01.837Z,100945.69
2018-07-22T20:43:30.483Z,100947.88
2018-07-22T20:45:59.524Z,100944.05
2018-07-22T20:48:28.269Z,100949.78
2018-07-22T20:50:57.352Z,100947.05
2018-07-22T20:53:26.494Z,100950.05
2018-07-22T20:55:55.297Z,100953.03
2018-07-22T20:58:23.970Z,100952.76
2018-07-22T21:00:52.616Z,100953.83
2018-07-22T21:03:21.333Z,100962.03
2018-07-22T21:05:50.549Z,100951.63
2018-07-22T21:08:19.212Z,100958.70
2018-07-22T21:10:47.983Z,100965.52
2018-07-22T21:13:19.080Z,100969.59
2018-07-22T21:15:48.703Z,100959.22
2018-07-22T21:18:17.751Z,100958.94
2018-07-22T21:20:47.286Z,100959.45
2018-07-22T21:23:16.595Z,100959.72
2018-07-22T21:25:45.215Z,100962.91
2018-07-22T21:28:13.890Z,100964.97
2018-07-22T21:30:42.586Z,100967.89
2018-07-22T21:33:12.478Z,100968.71
2018-07-22T21:35:41.581Z,100972.01
2018-07-22T21:38:10.681Z,100972.55
2018-07-22T21:40:39.394Z,100980.72
2018-07-22T21:43:08.100Z,100979.36
2018-07-22T21:45:36.833Z,100981.27
2018-07-22T21:48:05.648Z,100982.91
2018-07-22T21:50:34.711Z,100982.08
2018-07-22T21:53:03.407Z,100977.17
2018-07-22T21:55:32.391Z,100975.27
2018-07-22T21:58:01.246Z,100982.91
2018-07-22T22:00:34.988Z,100974.16
2018-07-22T22:03:04.663Z,100973.31
2018-07-22T22:05:33.695Z,100979.59
2018-07-22T22:08:02.404Z,100979.81
2018-07-22T22:10:31.424Z,100989.31
2018-07-22T22:13:00.062Z,100983.05
2018-07-22T22:15:29.876Z,100989.03
2018-07-22T22:17:59.842Z,100984.62
2018-07-22T22:20:28.991Z,100990.61
2018-07-22T22:22:58.194Z,100991.37
2018-07-22T22:25:26.894Z,100990.55
2018-07-22T22:27:55.632Z,100993.27
2018-07-22T22:30:24.338Z,100991.91
2018-07-22T22:32:53.155Z,100992.98
2018-07-22T22:35:21.844Z,100996.50
2018-07-22T22:37:50.731Z,100992.66
2018-07-22T22:40:19.726Z,101005.45
2018-07-22T22:42:48.821Z,100999.68
2018-07-22T22:45:17.538Z,100996.89
2018-07-22T22:47:46.182Z,101002.61
2018-07-22T22:50:15.094Z,100992.73
2018-07-22T22:52:43.948Z,100994.05
2018-07-22T22:55:12.840Z,100993.52
2018-07-22T22:57:51.456Z,100990.22
2018-07-22T23:00:20.131Z,100992.36
2018-07-22T23:02:48.804Z,100988.81
2018-07-22T23:05:17.461Z,100988.53
2018-07-22T23:07:46.443Z,100988.52
2018-07-22T23:10:15.159Z,100983.29
2018-07-22T23:12:44.739Z,100986.00
2018-07-22T23:15:13.428Z,100982.95
2018-07-22T23:17:42.122Z,100985.84
2018-07-22T23:20:11.072Z,100987.94
2018-07-22T23:22:39.754Z,100992.22
2018-07-22T23:25:08.427Z,100985.04
2018-07-22T23:27:37.082Z,100985.27
2018-07-22T23:30:05.922Z,100982.55
2018-07-22T23:32:34.874Z,100983.63
2018-07-22T23:35:03.562Z,100982.27
2018-07-22T23:37:32.630Z,100986.34
2018-07-22T23:40:01.309Z,100982.27
2018-07-22T23:42:30.032Z,100985.23
2018-07-22T23:44:58.877Z,100996.64
2018-07-22T23:47:27.928Z,100995.48
2018-07-22T23:49:56.925Z,100998.45
2018-07-22T23:52:25.938Z,100999.27
2018-07-22T23:54:54.550Z,100994.28
2018-07-22T23:57:23.274Z,100998.06
2018-07-22T23:59:51.958Z,101000.50
